sensor_id;sensor_type;location;lat;lon;timestamp;P1;P2;P0
46591;PMS6003;32314;48.748;9.656;2023-11-21T08:15:16;1.67;1.67;1.00
46591;PMS6003;32314;48.748;9.656;2023-11-21T08:18:46;5.33;1.00;1.00
46591;PMS6003;32314;48.748;9.656;2023-11-21T08:21:51;1.00;1.00;1.00
46591;PMS6003;32314;48.748;9.656;2023-11-21T08:25:09;1.00;1.00;1.00
46591;PMS6003;32314;48.748;9.656;2023-11-21T08:28:27;3.00;0.00;0.00
46591;PMS6003;32314;48.748;9.656;2023-11-21T08:31:31;3.00;3.00;1.00
46591;PMS6003;32314;48.748;9.656;2023-11-21T08:34:38;1.00;1.00;0.75
46591;PMS6003;32314;48.748;9.656;2023-11-21T08:37:43;1.50;1.00;1.00
46591;PMS6003;32314;48.748;9.656;2023-11-21T08:40:46;0.75;0.75;0.00
46591;PMS6003;32314;48.748;9.656;2023-11-21T08:44:13;1.00;1.00;1.00
46591;PMS6003;32314;48.748;9.656;2023-11-21T08:47:30;0.00;0.00;0.00
46591;PMS6003;32314;48.748;9.656;2023-11-21T08:50:43;3.00;3.00;3.00
46591;PMS6003;32314;48.748;9.656;2023-11-21T08:53:40;0.00;0.00;0.00
46591;PMS6003;32314;48.748;9.656;2023-11-21T09:00:18;3.25;1.00;0.00
46591;PMS6003;32314;48.748;9.656;2023-11-21T09:07:51;3.00;3.00;1.00
46591;PMS6003;32314;48.748;9.656;2023-11-21T09:11:42;1.00;1.00;1.00
46591;PMS6003;32314;48.748;9.656;2023-11-21T09:15:37;0.00;0.00;0.00
46591;PMS6003;32314;48.748;9.656;2023-11-21T09:34:16;0.00;0.00;0.00
46591;PMS6003;32314;48.748;9.656;2023-11-21T09:37:50;0.00;0.00;0.00
46591;PMS6003;32314;48.748;9.656;2023-11-21T09:48:37;1.00;1.00;1.00
46591;PMS6003;32314;48.748;9.656;2023-11-21T09:59:21;3.00;0.00;0.00
46591;PMS6003;32314;48.748;9.656;2023-11-21T10:09:26;0.00;0.00;0.00
46591;PMS6003;32314;48.748;9.656;2023-11-21T10:20:14;0.00;0.00;0.00
46591;PMS6003;32314;48.748;9.656;2023-11-21T10:23:17;0.00;0.00;0.00
46591;PMS6003;32314;48.748;9.656;2023-11-21T10:26:28;1.50;0.00;0.00
46591;PMS6003;32314;48.748;9.656;2023-11-21T10:29:48;0.25;0.25;0.00
46591;PMS6003;32314;48.748;9.656;2023-11-21T10:37:26;1.00;0.00;0.00
46591;PMS6003;32314;48.748;9.656;2023-11-21T10:40:31;0.00;0.00;0.00
46591;PMS6003;32314;48.748;9.656;2023-11-21T10:43:35;0.00;0.00;0.00
46591;PMS6003;32314;48.748;9.656;2023-11-21T10:46:59;0.50;0.50;0.25
46591;PMS6003;32314;48.748;9.656;2023-11-21T10:50:18;0.00;0.00;0.00
46591;PMS6003;32314;48.748;9.656;2023-11-21T10:53:07;0.00;0.00;0.00
46591;PMS6003;32314;48.748;9.656;2023-11-21T10:56:13;0.00;0.00;0.00
46591;PMS6003;32314;48.748;9.656;2023-11-21T10:59:21;1.00;1.00;1.00
46591;PMS6003;32314;48.748;9.656;2023-11-21T11:02:41;1.50;1.50;1.00
46591;PMS6003;32314;48.748;9.656;2023-11-21T11:05:35;0.50;0.00;0.00
46591;PMS6003;32314;48.748;9.656;2023-11-21T11:08:30;0.00;0.00;0.00
46591;PMS6003;32314;48.748;9.656;2023-11-21T11:11:30;0.00;0.00;0.00
46591;PMS6003;32314;48.748;9.656;2023-11-21T11:15:02;0.00;0.00;0.00
46591;PMS6003;32314;48.748;9.656;2023-11-21T11:18:02;0.00;0.00;0.00
46591;PMS6003;32314;48.748;9.656;2023-11-21T11:21:11;0.00;0.00;0.00
46591;PMS6003;32314;48.748;9.656;2023-11-21T11:27:55;1.00;0.00;0.00
46591;PMS6003;32314;48.748;9.656;2023-11-21T11:34:29;0.00;0.00;0.00
46591;PMS6003;32314;48.748;9.656;2023-11-21T11:37:37;0.00;0.00;0.00
46591;PMS6003;32314;48.748;9.656;2023-11-21T11:41:34;0.00;0.00;0.00
46591;PMS6003;32314;48.748;9.656;2023-11-21T11:45:00;0.00;0.00;0.00
46591;PMS6003;32314;48.748;9.656;2023-11-21T11:51:41;0.00;0.00;0.00
46591;PMS6003;32314;48.748;9.656;2023-11-21T11:54:36;1.00;1.00;0.00
46591;PMS6003;32314;48.748;9.656;2023-11-21T11:57:47;0.00;0.00;0.00
46591;PMS6003;32314;48.748;9.656;2023-11-21T12:01:12;0.00;0.00;0.00
46591;PMS6003;32314;48.748;9.656;2023-11-21T12:17:20;0.00;0.00;0.00
46591;PMS6003;32314;48.748;9.656;2023-11-21T12:20:38;0.00;0.00;0.00
46591;PMS6003;32314;48.748;9.656;2023-11-21T12:23:40;0.00;0.00;0.00
46591;PMS6003;32314;48.748;9.656;2023-11-21T12:27:08;0.00;0.00;0.00
46591;PMS6003;32314;48.748;9.656;2023-11-21T12:30:03;0.00;0.00;0.00
46591;PMS6003;32314;48.748;9.656;2023-11-21T12:33:28;0.00;0.00;0.00
46591;PMS6003;32314;48.748;9.656;2023-11-21T12:39:24;0.00;0.00;0.00
46591;PMS6003;32314;48.748;9.656;2023-11-21T12:46:56;0.00;0.00;0.00
46591;PMS6003;32314;48.748;9.656;2023-11-21T12:50:30;0.00;0.00;0.00
46591;PMS6003;32314;48.748;9.656;2023-11-21T12:57:13;3.00;0.00;0.00
46591;PMS6003;32314;48.748;9.656;2023-11-21T13:01:07;1.50;0.00;0.00
46591;PMS6003;32314;48.748;9.656;2023-11-21T13:08:20;0.00;0.00;0.00
46591;PMS6003;32314;48.748;9.656;2023-11-21T13:11:31;0.00;0.00;0.00
46591;PMS6003;32314;48.748;9.656;2023-11-21T13:14:28;0.00;0.00;0.00
46591;PMS6003;32314;48.748;9.656;2023-11-21T13:18:15;1.00;0.00;0.00
46591;PMS6003;32314;48.748;9.656;2023-11-21T13:22:14;0.00;0.00;0.00
46591;PMS6003;32314;48.748;9.656;2023-11-21T13:29:43;0.00;0.00;0.00
46591;PMS6003;32314;48.748;9.656;2023-11-21T13:33:32;0.00;0.00;0.00
46591;PMS6003;32314;48.748;9.656;2023-11-21T13:37:00;0.00;0.00;0.00
46591;PMS6003;32314;48.748;9.656;2023-11-21T13:44:31;1.00;0.00;0.00
46591;PMS6003;32314;48.748;9.656;2023-11-21T13:56:09;0.00;0.00;0.00
46591;PMS6003;32314;48.748;9.656;2023-11-21T14:03:54;0.00;0.00;0.00
46591;PMS6003;32314;48.748;9.656;2023-11-21T14:33:07;1.00;0.00;0.00
46591;PMS6003;32314;48.748;9.656;2023-11-21T14:36:49;0.00;0.00;0.00
46591;PMS6003;32314;48.748;9.656;2023-11-21T14:40:36;0.00;0.00;0.00
46591;PMS6003;32314;48.748;9.656;2023-11-21T14:51:46;0.00;0.00;0.00
46591;PMS6003;32314;48.748;9.656;2023-11-21T14:55:14;0.00;0.00;0.00
46591;PMS6003;32314;48.748;9.656;2023-11-21T14:58:36;0.00;0.00;0.00
46591;PMS6003;32314;48.748;9.656;2023-11-21T15:02:42;0.00;0.00;0.00
46591;PMS6003;32314;48.748;9.656;2023-11-21T15:31:21;1.00;1.00;1.00
46591;PMS6003;32314;48.748;9.656;2023-11-21T15:35:01;0.00;0.00;0.00
46591;PMS6003;32314;48.748;9.656;2023-11-21T16:44:29;1.00;1.00;1.00
46591;PMS6003;32314;48.748;9.656;2023-11-21T16:47:45;3.67;2.33;1.00
46591;PMS6003;32314;48.748;9.656;2023-11-21T16:51:25;4.00;4.00;3.00
46591;PMS6003;32314;48.748;9.656;2023-11-21T16:55:21;4.00;3.33;3.00
46591;PMS6003;32314;48.748;9.656;2023-11-21T16:59:36;4.00;4.00;4.00
46591;PMS6003;32314;48.748;9.656;2023-11-21T17:03:35;3.00;1.00;0.00
46591;PMS6003;32314;48.748;9.656;2023-11-21T18:14:10;9.00;6.00;4.67
46591;PMS6003;32314;48.748;9.656;2023-11-21T19:12:59;9.33;9.33;6.00
46591;PMS6003;32314;48.748;9.656;2023-11-21T19:16:10;7.00;6.00;4.00
46591;PMS6003;32314;48.748;9.656;2023-11-21T19:19:42;6.00;6.00;3.67
46591;PMS6003;32314;48.748;9.656;2023-11-21T19:27:23;6.00;6.00;6.00
46591;PMS6003;32314;48.748;9.656;2023-11-21T20:47:22;9.00;7.00;4.67
